createdAt,value
2018-10-12T00:00:53.353Z,72.20
2018-10-12T00:03:25.119Z,71.90
2018-10-12T00:05:56.535Z,74.60
2018-10-12T00:08:28.069Z,71.40
2018-10-12T00:10:59.460Z,73.40
2018-10-12T00:13:31.259Z,70.30
2018-10-12T00:16:02.499Z,67.30
2018-10-12T00:18:34.247Z,65.90
2018-10-12T00:21:05.282Z,65.00
2018-10-12T00:23:36.806Z,64.20
2018-10-12T00:26:08.255Z,64.20
2018-10-12T00:28:39.787Z,65.60
2018-10-12T00:31:11.195Z,65.50
2018-10-12T00:33:42.679Z,67.50
2018-10-12T00:36:14.268Z,68.20
2018-10-12T00:38:45.833Z,69.30
2018-10-12T00:41:17.083Z,69.70
2018-10-12T00:43:48.607Z,71.90
2018-10-12T00:46:20.359Z,73.30
2018-10-12T00:48:52.142Z,72.00
2018-10-12T00:51:23.523Z,72.90
2018-10-12T00:53:55.691Z,74.30
2018-10-12T00:56:26.851Z,74.70
2018-10-12T00:58:58.653Z,74.20
2018-10-12T01:01:30.955Z,75.90
2018-10-12T01:04:04.679Z,76.90
2018-10-12T01:06:36.471Z,78.50
2018-10-12T01:09:09.569Z,80.20
2018-10-12T01:11:40.716Z,83.70
2018-10-12T01:14:12.127Z,83.30
2018-10-12T01:16:43.307Z,83.20
2018-10-12T01:19:15.466Z,85.50
2018-10-12T01:21:46.675Z,87.80
2018-10-12T01:24:18.715Z,90.10
2018-10-12T01:26:50.826Z,91.60
2018-10-12T01:29:22.367Z,92.80
2018-10-12T01:31:53.752Z,95.80
2018-10-12T01:34:25.367Z,96.70
2018-10-12T01:36:56.675Z,97.20
2018-10-12T01:39:28.191Z,98.30
2018-10-12T01:41:59.399Z,99.90
2018-10-12T01:44:30.794Z,98.60
2018-10-12T01:47:02.096Z,97.80
2018-10-12T01:49:33.478Z,98.60
2018-10-12T01:52:04.714Z,98.70
2018-10-12T01:54:36.419Z,98.70
2018-10-12T01:57:08.258Z,99.00
2018-10-12T01:59:39.863Z,99.30
2018-10-12T02:02:11.275Z,99.20
2018-10-12T02:04:42.883Z,99.00
2018-10-12T02:07:14.247Z,99.30
2018-10-12T02:09:45.656Z,99.90
2018-10-12T02:12:17.139Z,99.90
2018-10-12T02:14:48.754Z,99.90
2018-10-12T02:17:20.039Z,99.90
2018-10-12T02:19:51.887Z,99.90
2018-10-12T02:22:23.560Z,99.90
2018-10-12T02:24:55.801Z,99.90
2018-10-12T02:27:28.067Z,99.90
2018-10-12T02:29:59.703Z,99.90
2018-10-12T02:32:30.862Z,99.90
2018-10-12T02:35:02.267Z,99.90
2018-10-12T02:37:33.591Z,99.90
2018-10-12T02:40:05.271Z,99.90
2018-10-12T02:42:36.414Z,99.10
2018-10-12T02:45:07.636Z,97.50
2018-10-12T02:47:38.968Z,97.00
2018-10-12T02:50:10.883Z,97.00
2018-10-12T02:52:42.185Z,97.40
2018-10-12T02:55:14.253Z,97.60
2018-10-12T02:57:45.472Z,98.40
2018-10-12T03:00:17.179Z,97.50
2018-10-12T03:02:48.763Z,97.40
2018-10-12T03:05:20.678Z,96.80
2018-10-12T03:07:52.087Z,96.30
2018-10-12T03:10:23.919Z,94.80
2018-10-12T03:12:55.316Z,94.50
2018-10-12T03:15:27.814Z,93.60
2018-10-12T03:18:00.889Z,91.70
2018-10-12T03:20:32.550Z,92.10
2018-10-12T03:23:04.159Z,91.80
2018-10-12T03:25:35.794Z,91.10
2018-10-12T03:28:20.962Z,90.30
2018-10-12T03:30:52.682Z,90.20
2018-10-12T03:33:24.044Z,90.10
2018-10-12T03:35:56.642Z,89.30
2018-10-12T03:38:28.262Z,89.30
2018-10-12T03:41:00.335Z,89.60
2018-10-12T03:43:31.886Z,89.50
2018-10-12T03:46:03.902Z,90.00
2018-10-12T03:48:35.202Z,87.20
2018-10-12T03:51:07.291Z,84.30
2018-10-12T03:53:38.831Z,85.10
2018-10-12T03:56:10.621Z,87.30
2018-10-12T03:58:42.078Z,88.50
2018-10-12T04:01:13.717Z,85.10
2018-10-12T04:03:44.824Z,79.30
2018-10-12T04:06:16.661Z,78.30
2018-10-12T04:08:48.255Z,79.20
2018-10-12T04:11:19.681Z,79.60
2018-10-12T04:13:50.955Z,78.00
2018-10-12T04:16:22.889Z,79.00
2018-10-12T04:18:54.906Z,80.20
2018-10-12T04:21:26.865Z,80.10
2018-10-12T04:23:58.206Z,78.20
2018-10-12T04:26:30.093Z,75.80
2018-10-12T04:29:03.741Z,77.60
2018-10-12T04:31:35.545Z,78.10
2018-10-12T04:34:07.135Z,77.50
2018-10-12T04:36:39.102Z,77.90
2018-10-12T04:39:20.348Z,78.30
2018-10-12T04:41:52.860Z,77.30
2018-10-12T04:44:24.193Z,77.80
2018-10-12T04:46:56.894Z,75.60
2018-10-12T04:49:28.571Z,75.00
2018-10-12T04:52:02.192Z,75.20
2018-10-12T04:54:33.782Z,75.40
2018-10-12T04:57:09.420Z,74.90
2018-10-12T04:59:40.980Z,72.20
2018-10-12T05:02:12.917Z,69.10
2018-10-12T05:04:44.310Z,66.20
2018-10-12T05:07:16.017Z,65.00
2018-10-12T05:09:47.355Z,65.50
2018-10-12T05:12:19.512Z,65.80
2018-10-12T05:14:53.225Z,66.50
2018-10-12T05:17:25.044Z,65.50
2018-10-12T05:19:56.472Z,66.10
2018-10-12T05:22:28.323Z,66.40
2018-10-12T05:24:59.613Z,66.50
2018-10-12T05:27:31.540Z,63.20
2018-10-12T05:30:05.072Z,64.80
2018-10-12T05:32:36.818Z,64.80
2018-10-12T05:35:08.120Z,62.30
2018-10-12T05:37:39.868Z,63.10
2018-10-12T05:40:11.470Z,61.60
2018-10-12T05:42:43.095Z,61.20
2018-10-12T05:45:14.468Z,62.70
2018-10-12T05:47:46.183Z,62.90
2018-10-12T05:50:17.780Z,61.10
2018-10-12T05:52:50.029Z,62.10
2018-10-12T05:55:21.452Z,59.40
2018-10-12T05:57:53.349Z,57.50
2018-10-12T06:00:24.708Z,56.90
2018-10-12T06:02:56.430Z,56.70
2018-10-12T06:05:28.220Z,57.30
2018-10-12T06:07:59.910Z,56.50
2018-10-12T06:10:31.262Z,55.40
2018-10-12T06:13:04.248Z,56.40
2018-10-12T06:15:35.653Z,55.90
2018-10-12T06:18:08.174Z,53.30
2018-10-12T06:20:39.465Z,51.30
2018-10-12T06:23:11.672Z,50.20
2018-10-12T06:25:42.890Z,48.50
2018-10-12T06:28:14.585Z,48.70
2018-10-12T06:30:47.208Z,47.80
2018-10-12T06:33:19.075Z,47.00
2018-10-12T06:35:50.700Z,47.80
2018-10-12T06:38:22.173Z,47.80
2018-10-12T06:40:53.644Z,48.20
2018-10-12T06:43:25.624Z,49.40
2018-10-12T06:45:57.241Z,49.00
2018-10-12T06:48:29.478Z,48.90
2018-10-12T06:51:00.782Z,49.00
2018-10-12T06:53:32.621Z,52.10
2018-10-12T06:56:04.243Z,51.80
2018-10-12T06:58:36.107Z,50.50
2018-10-12T07:01:07.372Z,49.80
2018-10-12T07:03:39.059Z,49.50
2018-10-12T07:06:10.409Z,51.10
2018-10-12T07:08:42.124Z,50.80
2018-10-12T07:11:13.697Z,50.50
2018-10-12T07:13:46.366Z,50.60
2018-10-12T07:16:18.477Z,50.30
2018-10-12T07:18:50.920Z,51.20
2018-10-12T07:21:22.460Z,50.90
2018-10-12T07:23:55.593Z,51.80
2018-10-12T07:26:34.102Z,50.70
2018-10-12T07:29:05.526Z,50.30
2018-10-12T07:31:41.156Z,50.10
2018-10-12T07:34:13.969Z,51.00
2018-10-12T07:36:46.105Z,51.50
2018-10-12T07:39:22.019Z,47.70
2018-10-12T07:41:53.539Z,48.10
2018-10-12T07:44:25.739Z,46.50
2018-10-12T07:46:57.264Z,46.60
2018-10-12T07:49:31.027Z,47.10
2018-10-12T07:52:02.977Z,47.80
2018-10-12T07:54:34.472Z,49.50
2018-10-12T07:57:13.668Z,53.00
2018-10-12T07:59:46.118Z,54.80
2018-10-12T08:02:17.692Z,53.70
2018-10-12T08:04:49.620Z,54.80
2018-10-12T08:07:20.974Z,55.00
2018-10-12T08:09:53.171Z,56.00
2018-10-12T08:12:28.440Z,57.60
2018-10-12T08:15:00.345Z,57.60
2018-10-12T08:17:31.847Z,58.00
2018-10-12T08:20:04.035Z,58.70
2018-10-12T08:22:37.278Z,60.20
2018-10-12T08:25:09.076Z,62.10
2018-10-12T08:27:44.040Z,63.10
2018-10-12T08:30:16.268Z,64.20
2018-10-12T08:32:48.798Z,64.10
2018-10-12T08:35:20.488Z,65.20
2018-10-12T08:37:51.918Z,66.20
2018-10-12T08:40:23.573Z,65.90
2018-10-12T08:42:54.960Z,66.90
2018-10-12T08:45:27.986Z,63.40
2018-10-12T08:47:59.208Z,64.50
2018-10-12T08:50:33.730Z,64.00
2018-10-12T08:53:07.207Z,64.50
2018-10-12T08:55:39.066Z,65.50
2018-10-12T08:58:10.981Z,65.80
2018-10-12T09:00:43.228Z,66.60
2018-10-12T09:03:14.424Z,68.70
2018-10-12T09:05:49.187Z,69.20
2018-10-12T09:08:21.248Z,69.70
2018-10-12T09:10:53.268Z,73.00
2018-10-12T09:13:26.552Z,75.10
2018-10-12T09:15:58.505Z,74.50
2018-10-12T09:18:30.567Z,76.50
2018-10-12T09:21:02.705Z,78.30
2018-10-12T09:23:36.157Z,80.50
2018-10-12T09:26:09.784Z,82.40
2018-10-12T09:28:43.391Z,83.70
2018-10-12T09:31:15.473Z,84.20
2018-10-12T09:33:47.345Z,86.70
2018-10-12T09:36:19.135Z,87.00
2018-10-12T09:38:50.729Z,85.40
2018-10-12T09:41:22.388Z,85.30
2018-10-12T09:43:53.730Z,87.30
2018-10-12T09:46:25.266Z,89.50
2018-10-12T09:48:56.531Z,90.50
2018-10-12T09:51:28.474Z,90.60
2018-10-12T09:53:59.755Z,91.00
2018-10-12T09:56:31.473Z,91.60
2018-10-12T09:59:03.648Z,92.40
2018-10-12T10:01:39.996Z,91.70
2018-10-12T10:04:16.324Z,91.80
2018-10-12T10:06:48.413Z,93.00
2018-10-12T10:09:19.825Z,92.50
2018-10-12T10:11:51.657Z,92.90
2018-10-12T10:14:30.829Z,93.50
2018-10-12T10:17:02.564Z,94.00
2018-10-12T10:19:34.620Z,93.50
2018-10-12T10:22:07.281Z,94.60
2018-10-12T10:24:40.070Z,94.60
2018-10-12T10:27:12.138Z,94.70
2018-10-12T10:29:43.610Z,95.30
2018-10-12T10:32:16.161Z,95.60
2018-10-12T10:34:48.280Z,95.20
2018-10-12T10:37:19.949Z,95.20
2018-10-12T10:39:51.378Z,95.20
2018-10-12T10:42:23.328Z,95.50
2018-10-12T10:44:58.657Z,96.50
2018-10-12T10:47:33.428Z,96.40
2018-10-12T10:50:04.794Z,97.00
2018-10-12T10:52:36.530Z,97.10
2018-10-12T10:55:08.124Z,96.80
2018-10-12T10:57:41.942Z,97.30
2018-10-12T11:00:14.329Z,97.60
2018-10-12T11:02:46.772Z,99.30
2018-10-12T11:05:18.194Z,99.90
2018-10-12T11:07:50.259Z,99.90
2018-10-12T11:10:22.463Z,99.90
2018-10-12T11:12:54.217Z,99.90
2018-10-12T11:15:25.536Z,99.70
2018-10-12T11:17:57.707Z,98.50
2018-10-12T11:20:29.362Z,99.60
2018-10-12T11:23:01.025Z,99.90
2018-10-12T11:25:32.462Z,99.90
2018-10-12T11:28:04.748Z,99.90
2018-10-12T11:30:36.311Z,99.90
2018-10-12T11:33:08.333Z,99.90
2018-10-12T11:35:40.936Z,99.90
2018-10-12T11:38:13.107Z,99.90
2018-10-12T11:40:44.523Z,99.90
2018-10-12T11:43:29.904Z,99.90
2018-10-12T11:46:01.728Z,99.90
2018-10-12T11:48:33.432Z,99.90
2018-10-12T11:51:05.090Z,99.90
2018-10-12T11:53:36.631Z,99.90
2018-10-12T11:56:08.177Z,99.90
2018-10-12T11:58:39.921Z,99.90
2018-10-12T12:01:11.400Z,99.90
2018-10-12T12:03:43.045Z,99.90
2018-10-12T12:06:14.320Z,99.90
2018-10-12T12:08:46.442Z,99.90
2018-10-12T12:11:18.560Z,99.90
2018-10-12T12:13:50.309Z,99.90
2018-10-12T12:16:21.781Z,99.90
2018-10-12T12:18:53.569Z,99.90
2018-10-12T12:21:25.229Z,99.90
2018-10-12T12:23:56.877Z,99.90
2018-10-12T12:26:28.153Z,99.90
2018-10-12T12:28:59.914Z,99.90
2018-10-12T12:31:31.431Z,99.90
2018-10-12T12:34:03.184Z,99.90
2018-10-12T12:36:36.821Z,99.90
2018-10-12T12:39:09.624Z,99.90
2018-10-12T12:41:40.916Z,99.90
2018-10-12T12:44:14.529Z,99.90
2018-10-12T12:46:45.805Z,99.90
2018-10-12T12:49:17.722Z,99.90
2018-10-12T12:51:48.888Z,99.90
2018-10-12T12:54:20.729Z,99.90
2018-10-12T12:56:52.100Z,99.90
2018-10-12T12:59:23.786Z,99.90
2018-10-12T13:01:54.913Z,99.90
2018-10-12T13:04:27.053Z,99.90
2018-10-12T13:06:58.512Z,99.90
2018-10-12T13:09:30.319Z,99.90
2018-10-12T13:12:01.545Z,99.90
2018-10-12T13:14:33.025Z,99.90
2018-10-12T13:17:05.099Z,99.90
2018-10-12T13:19:36.873Z,99.90
2018-10-12T13:22:08.226Z,99.90
2018-10-12T13:24:39.642Z,99.90
2018-10-12T13:27:11.940Z,99.90
2018-10-12T13:29:43.749Z,99.90
2018-10-12T13:32:14.833Z,99.90
2018-10-12T13:39:35.397Z,99.90
2018-10-12T13:42:07.449Z,99.90
2018-10-12T13:44:38.638Z,99.90
2018-10-12T13:47:10.523Z,99.90
2018-10-12T13:49:42.197Z,99.90
2018-10-12T13:52:13.945Z,99.90
2018-10-12T13:54:45.866Z,99.90
2018-10-12T13:57:17.597Z,99.90
2018-10-12T13:59:49.179Z,99.90
2018-10-12T14:02:20.734Z,99.90
2018-10-12T14:04:52.494Z,99.90
2018-10-12T14:07:24.317Z,99.90
2018-10-12T14:09:55.769Z,99.90
2018-10-12T14:12:27.020Z,99.90
2018-10-12T14:14:58.514Z,99.90
2018-10-12T14:17:30.172Z,99.90
2018-10-12T14:20:02.280Z,99.90
2018-10-12T14:22:34.570Z,99.90
2018-10-12T14:25:05.842Z,99.90
2018-10-12T14:27:37.722Z,99.90
2018-10-12T14:30:09.171Z,99.90
2018-10-12T14:32:40.970Z,99.90
2018-10-12T14:35:12.585Z,99.90
2018-10-12T14:37:44.201Z,99.90
2018-10-12T14:40:17.213Z,99.90
2018-10-12T14:42:48.818Z,99.90
2018-10-12T14:45:20.233Z,99.90
2018-10-12T14:47:52.114Z,99.90
2018-10-12T14:50:23.681Z,99.90
2018-10-12T14:52:55.428Z,99.90
2018-10-12T14:55:26.754Z,99.90
2018-10-12T14:57:58.229Z,99.90
2018-10-12T15:00:29.734Z,99.90
2018-10-12T15:03:01.835Z,99.90
2018-10-12T15:05:33.401Z,99.90
2018-10-12T15:08:05.469Z,99.90
2018-10-12T15:10:36.845Z,99.90
2018-10-12T15:13:08.818Z,99.90
2018-10-12T15:15:40.274Z,99.90
2018-10-12T15:18:11.974Z,99.90
2018-10-12T15:20:43.529Z,99.90
2018-10-12T15:23:15.368Z,99.90
2018-10-12T15:25:46.750Z,99.90
2018-10-12T15:28:18.373Z,99.90
2018-10-12T15:30:49.858Z,99.90
2018-10-12T15:33:21.561Z,99.90
2018-10-12T15:35:52.859Z,99.90
2018-10-12T15:38:24.571Z,99.90
2018-10-12T15:40:57.853Z,99.90
2018-10-12T15:43:30.014Z,99.90
2018-10-12T15:46:02.115Z,99.90
2018-10-12T15:48:33.677Z,99.90
2018-10-12T15:51:04.996Z,99.90
2018-10-12T15:53:36.870Z,99.90
2018-10-12T15:56:08.395Z,99.90
2018-10-12T15:58:41.154Z,99.90
2018-10-12T16:01:12.543Z,99.90
2018-10-12T16:03:44.805Z,99.90
2018-10-12T16:06:16.361Z,99.90
2018-10-12T16:08:48.145Z,99.90
2018-10-12T16:11:19.953Z,99.90
2018-10-12T16:13:51.766Z,99.90
2018-10-12T16:16:23.027Z,99.90
2018-10-12T16:18:54.706Z,99.90
2018-10-12T16:21:26.594Z,99.90
2018-10-12T16:23:58.350Z,99.90
2018-10-12T16:26:29.734Z,99.90
2018-10-12T16:29:01.541Z,99.90
2018-10-12T16:31:33.185Z,99.90
2018-10-12T16:34:05.247Z,99.90
2018-10-12T16:36:37.276Z,99.90
2018-10-12T16:39:10.339Z,99.90
2018-10-12T16:41:43.178Z,99.90
2018-10-12T16:44:14.845Z,99.90
2018-10-12T16:46:46.145Z,99.90
2018-10-12T16:49:17.706Z,99.90
2018-10-12T16:51:49.098Z,99.90
2018-10-12T16:54:20.516Z,99.90
2018-10-12T16:56:52.046Z,99.90
2018-10-12T16:59:23.974Z,99.90
2018-10-12T17:01:55.174Z,99.90
2018-10-12T17:04:27.907Z,99.90
2018-10-12T17:06:59.275Z,99.90
2018-10-12T17:09:31.085Z,99.90
2018-10-12T17:12:03.662Z,99.90
2018-10-12T17:14:35.426Z,99.90
2018-10-12T17:17:06.927Z,99.90
2018-10-12T17:19:38.693Z,99.90
2018-10-12T17:22:10.135Z,99.90
2018-10-12T17:24:41.870Z,99.90
2018-10-12T17:27:13.300Z,99.90
2018-10-12T17:29:44.993Z,99.90
2018-10-12T17:32:16.661Z,99.90
2018-10-12T17:34:48.697Z,99.90
2018-10-12T17:37:19.974Z,99.90
2018-10-12T17:39:51.574Z,99.90
2018-10-12T17:42:24.312Z,99.90
2018-10-12T17:44:56.166Z,99.90
2018-10-12T17:47:27.435Z,99.90
2018-10-12T17:49:59.114Z,99.90
2018-10-12T17:52:30.127Z,99.90
2018-10-12T17:55:03.307Z,99.90
2018-10-12T17:57:36.912Z,99.90
2018-10-12T18:00:09.882Z,99.90
2018-10-12T18:02:41.357Z,99.90
2018-10-12T18:05:12.667Z,99.90
2018-10-12T18:07:44.161Z,99.90
2018-10-12T18:10:15.534Z,99.90
2018-10-12T18:12:47.002Z,99.90
2018-10-12T18:15:18.530Z,99.90
2018-10-12T18:17:50.065Z,99.90
2018-10-12T18:20:21.746Z,99.90
2018-10-12T18:22:53.153Z,99.90
2018-10-12T18:25:24.858Z,99.90
2018-10-12T18:27:56.492Z,99.90
2018-10-12T18:30:28.030Z,99.90
2018-10-12T18:32:59.489Z,99.90
2018-10-12T18:35:31.058Z,99.90
2018-10-12T18:38:02.430Z,99.90
2018-10-12T18:40:34.369Z,99.90
2018-10-12T18:43:06.276Z,99.90
2018-10-12T18:45:37.851Z,99.90
2018-10-12T18:48:09.148Z,99.90
2018-10-12T18:50:40.779Z,99.90
2018-10-12T18:53:12.238Z,99.90
2018-10-12T18:55:43.992Z,99.90
2018-10-12T18:58:15.368Z,99.90
2018-10-12T19:00:46.969Z,99.90
2018-10-12T19:03:18.550Z,99.90
2018-10-12T19:05:50.489Z,99.90
2018-10-12T19:08:21.770Z,99.90
2018-10-12T19:10:53.439Z,99.90
2018-10-12T19:13:24.779Z,98.60
2018-10-12T19:15:56.390Z,98.00
2018-10-12T19:18:29.841Z,97.70
2018-10-12T19:21:01.500Z,96.10
2018-10-12T19:23:37.181Z,94.00
2018-10-12T19:26:10.820Z,93.40
2018-10-12T19:28:42.403Z,90.70
2018-10-12T19:31:14.158Z,90.10
2018-10-12T19:33:45.518Z,87.70
2018-10-12T19:36:17.414Z,86.70
2018-10-12T19:38:48.602Z,85.80
2018-10-12T19:41:20.313Z,87.10
2018-10-12T19:43:53.371Z,84.50
2018-10-12T19:46:25.847Z,83.60
2018-10-12T19:48:57.186Z,81.70
2018-10-12T19:51:28.929Z,79.70
2018-10-12T19:54:00.105Z,77.70
2018-10-12T19:56:31.965Z,77.70
2018-10-12T19:59:03.471Z,79.90
2018-10-12T20:01:35.243Z,82.00
2018-10-12T20:04:08.398Z,83.90
2018-10-12T20:06:39.997Z,84.30
2018-10-12T20:09:12.717Z,85.70
2018-10-12T20:11:44.346Z,86.30
2018-10-12T20:14:15.812Z,85.70
2018-10-12T20:16:47.679Z,85.70
2018-10-12T20:19:19.017Z,86.00
2018-10-12T20:21:50.576Z,83.90
2018-10-12T20:24:22.647Z,85.10
2018-10-12T20:26:54.826Z,87.10
2018-10-12T20:29:26.155Z,91.70
2018-10-12T20:31:57.945Z,94.10
2018-10-12T20:34:29.186Z,96.50
2018-10-12T20:37:01.101Z,97.30
2018-10-12T20:39:32.685Z,96.70
2018-10-12T20:42:04.246Z,95.90
2018-10-12T20:44:36.204Z,95.50
2018-10-12T20:47:08.579Z,95.10
2018-10-12T20:49:39.841Z,94.30
2018-10-12T20:52:11.798Z,93.60
2018-10-12T20:54:43.433Z,92.80
2018-10-12T20:57:15.241Z,91.20
2018-10-12T20:59:46.571Z,90.90
2018-10-12T21:02:18.422Z,90.80
2018-10-12T21:04:49.670Z,90.90
2018-10-12T21:07:21.489Z,90.30
2018-10-12T21:09:53.014Z,88.50
2018-10-12T21:12:24.496Z,88.20
2018-10-12T21:14:55.870Z,84.40
2018-10-12T21:17:27.717Z,83.20
2018-10-12T21:19:58.963Z,83.40
2018-10-12T21:22:30.805Z,84.00
2018-10-12T21:25:02.262Z,81.80
2018-10-12T21:27:33.913Z,79.80
2018-10-12T21:30:05.297Z,80.10
2018-10-12T21:32:37.113Z,79.10
2018-10-12T21:35:08.383Z,79.60
2018-10-12T21:37:40.331Z,81.50
2018-10-12T21:40:12.189Z,84.00
2018-10-12T21:42:43.866Z,86.20
2018-10-12T21:45:16.185Z,85.40
2018-10-12T21:47:47.752Z,82.30
2018-10-12T21:50:19.105Z,80.50
2018-10-12T21:52:50.931Z,80.00
2018-10-12T21:55:22.229Z,80.50
2018-10-12T21:57:53.911Z,81.40
2018-10-12T22:00:25.524Z,82.00
2018-10-12T22:02:57.178Z,83.10
2018-10-12T22:05:29.305Z,82.80
2018-10-12T22:08:02.945Z,83.10
2018-10-12T22:10:34.374Z,84.20
2018-10-12T22:13:06.349Z,85.00
2018-10-12T22:15:37.909Z,86.40
2018-10-12T22:18:09.505Z,87.50
2018-10-12T22:20:40.998Z,87.70
2018-10-12T22:23:12.759Z,87.50
2018-10-12T22:25:44.233Z,87.40
2018-10-12T22:28:16.077Z,85.20
2018-10-12T22:30:47.929Z,84.50
2018-10-12T22:33:19.429Z,84.40
2018-10-12T22:35:50.956Z,84.70
2018-10-12T22:38:22.857Z,85.20
2018-10-12T22:40:54.073Z,86.10
2018-10-12T22:43:25.879Z,85.80
2018-10-12T22:45:58.002Z,84.60
2018-10-12T22:48:29.821Z,85.00
2018-10-12T22:51:01.137Z,84.30
2018-10-12T22:53:32.634Z,82.10
2018-10-12T22:56:04.119Z,81.30
2018-10-12T22:58:36.161Z,81.30
2018-10-12T23:01:07.941Z,82.10
2018-10-12T23:03:39.642Z,81.80
2018-10-12T23:06:11.162Z,82.80
2018-10-12T23:08:42.765Z,83.60
2018-10-12T23:11:14.157Z,81.50
2018-10-12T23:13:45.938Z,81.30
2018-10-12T23:16:17.300Z,80.90
2018-10-12T23:18:49.287Z,79.90
2018-10-12T23:21:20.678Z,80.70
2018-10-12T23:23:52.270Z,80.40
2018-10-12T23:26:23.700Z,80.40
2018-10-12T23:28:55.718Z,81.80
2018-10-12T23:31:26.863Z,82.50
2018-10-12T23:34:10.336Z,80.80
2018-10-12T23:36:41.566Z,80.20
2018-10-12T23:39:13.208Z,80.80
2018-10-12T23:41:44.350Z,81.90
2018-10-12T23:44:15.961Z,82.90
2018-10-12T23:46:48.922Z,83.80
2018-10-12T23:49:20.830Z,82.40
2018-10-12T23:51:52.254Z,83.40
2018-10-12T23:54:23.645Z,85.30
2018-10-12T23:56:55.137Z,87.30
2018-10-12T23:59:27.166Z,89.90
